createdAt,value
2018-01-18T00:00:09.166Z,95.07
2018-01-18T00:01:09.163Z,94.70
2018-01-18T00:02:09.149Z,93.85
2018-01-18T00:03:09.142Z,94.32
2018-01-18T00:04:09.135Z,94.32
2018-01-18T00:05:09.128Z,94.32
2018-01-18T00:06:09.123Z,94.51
2018-01-18T00:07:09.112Z,94.23
2018-01-18T00:08:09.105Z,94.23
2018-01-18T00:09:09.097Z,93.85
2018-01-18T00:10:09.090Z,94.70
2018-01-18T00:11:09.085Z,94.51
2018-01-18T00:12:09.079Z,94.60
2018-01-18T00:13:09.066Z,94.60
2018-01-18T00:14:09.060Z,94.42
2018-01-18T00:15:09.053Z,94.32
2018-01-18T00:16:09.046Z,94.13
2018-01-18T00:17:09.037Z,94.13
2018-01-18T00:18:09.033Z,94.04
2018-01-18T00:19:09.023Z,94.23
2018-01-18T00:20:09.015Z,94.32
2018-01-18T00:21:09.017Z,94.13
2018-01-18T00:22:09.001Z,94.13
2018-01-18T00:23:08.996Z,94.13
2018-01-18T00:24:08.985Z,93.85
2018-01-18T00:25:08.978Z,93.66
2018-01-18T00:26:08.973Z,93.85
2018-01-18T00:27:08.963Z,93.66
2018-01-18T00:28:08.956Z,94.04
2018-01-18T00:29:08.947Z,94.13
2018-01-18T00:30:08.941Z,94.32
2018-01-18T00:31:08.934Z,94.23
2018-01-18T00:32:08.947Z,94.23
2018-01-18T00:33:08.918Z,94.23
2018-01-18T00:34:08.912Z,93.85
2018-01-18T00:35:08.903Z,93.28
2018-01-18T00:36:08.898Z,93.37
2018-01-18T00:37:08.887Z,94.04
2018-01-18T00:38:08.880Z,93.75
2018-01-18T00:39:08.874Z,93.75
2018-01-18T00:40:08.864Z,93.94
2018-01-18T00:41:08.863Z,93.94
2018-01-18T00:42:08.851Z,94.42
2018-01-18T00:43:08.852Z,94.42
2018-01-18T00:44:08.834Z,93.94
2018-01-18T00:45:08.828Z,93.66
2018-01-18T00:46:08.817Z,94.04
2018-01-18T00:47:08.812Z,93.66
2018-01-18T00:48:08.804Z,93.28
2018-01-18T00:49:08.795Z,93.28
2018-01-18T00:50:08.788Z,92.99
2018-01-18T00:51:08.781Z,94.04
2018-01-18T00:52:08.773Z,93.94
2018-01-18T00:53:08.765Z,93.94
2018-01-18T00:54:08.757Z,93.85
2018-01-18T00:55:08.749Z,93.94
2018-01-18T00:56:08.746Z,94.23
2018-01-18T00:57:08.734Z,94.51
2018-01-18T00:58:08.727Z,94.04
2018-01-18T00:59:08.720Z,94.70
2018-01-18T01:00:08.713Z,94.42
2018-01-18T01:01:08.704Z,94.51
2018-01-18T01:02:08.698Z,94.51
2018-01-18T01:03:08.689Z,94.70
2018-01-18T01:04:08.682Z,95.07
2018-01-18T01:05:08.682Z,94.89
2018-01-18T01:06:08.666Z,94.98
2018-01-18T01:07:08.660Z,94.98
2018-01-18T01:08:08.653Z,95.07
2018-01-18T01:09:08.645Z,95.26
2018-01-18T01:10:08.638Z,95.93
2018-01-18T01:11:08.629Z,96.02
2018-01-18T01:12:08.624Z,95.64
2018-01-18T01:13:08.614Z,95.93
2018-01-18T01:14:08.607Z,96.31
2018-01-18T01:15:08.600Z,96.59
2018-01-18T01:16:08.593Z,96.12
2018-01-18T01:17:08.584Z,96.59
2018-01-18T01:18:08.579Z,97.25
2018-01-18T01:19:08.570Z,97.06
2018-01-18T01:20:08.563Z,96.50
2018-01-18T01:21:08.553Z,96.31
2018-01-18T01:22:08.550Z,96.21
2018-01-18T01:23:08.540Z,96.40
2018-01-18T01:24:08.533Z,96.12
2018-01-18T01:25:08.526Z,95.55
2018-01-18T01:26:08.517Z,95.55
2018-01-18T01:27:08.511Z,95.07
2018-01-18T01:28:08.503Z,94.70
2018-01-18T01:29:08.495Z,95.07
2018-01-18T01:30:08.505Z,94.89
2018-01-18T01:31:08.481Z,94.51
2018-01-18T01:32:08.473Z,95.07
2018-01-18T01:33:08.466Z,95.55
2018-01-18T01:34:08.460Z,95.36
2018-01-18T01:35:08.456Z,95.93
2018-01-18T01:36:08.443Z,95.17
2018-01-18T01:37:08.444Z,95.55
2018-01-18T01:38:08.428Z,95.26
2018-01-18T01:39:08.421Z,95.55
2018-01-18T01:40:08.415Z,94.79
2018-01-18T01:41:08.406Z,95.07
2018-01-18T01:42:08.399Z,94.51
2018-01-18T01:43:08.392Z,93.85
2018-01-18T01:44:08.382Z,94.13
2018-01-18T01:45:08.373Z,94.79
2018-01-18T01:46:08.367Z,94.70
2018-01-18T01:47:08.361Z,94.70
2018-01-18T01:48:08.354Z,94.70
2018-01-18T01:49:08.345Z,94.42
2018-01-18T01:50:08.338Z,94.42
2018-01-18T01:51:08.335Z,94.98
2018-01-18T01:52:08.338Z,94.13
2018-01-18T01:53:08.331Z,94.13
2018-01-18T01:54:08.312Z,94.13
2018-01-18T01:55:08.301Z,94.13
2018-01-18T01:56:08.292Z,94.04
2018-01-18T01:57:08.286Z,94.89
2018-01-18T01:58:08.280Z,94.89
2018-01-18T01:59:08.271Z,94.42
2018-01-18T02:00:08.262Z,94.70
2018-01-18T02:01:08.256Z,94.79
2018-01-18T02:02:08.249Z,94.60
2018-01-18T02:03:08.252Z,95.26
2018-01-18T02:04:08.234Z,94.79
2018-01-18T02:05:08.239Z,94.98
2018-01-18T02:06:08.218Z,94.89
2018-01-18T02:07:08.211Z,95.07
2018-01-18T02:08:08.205Z,94.89
2018-01-18T02:09:08.198Z,94.98
2018-01-18T02:10:08.191Z,95.17
2018-01-18T02:11:08.184Z,95.36
2018-01-18T02:12:08.175Z,95.93
2018-01-18T02:13:08.181Z,95.74
2018-01-18T02:14:08.159Z,95.74
2018-01-18T02:15:08.158Z,95.07
2018-01-18T02:16:08.150Z,95.26
2018-01-18T02:17:08.138Z,95.55
2018-01-18T02:18:08.130Z,95.26
2018-01-18T02:19:08.122Z,95.26
2018-01-18T02:20:08.116Z,95.45
2018-01-18T02:21:08.113Z,95.83
2018-01-18T02:22:08.111Z,95.55
2018-01-18T02:23:08.097Z,95.64
2018-01-18T02:24:08.085Z,95.64
2018-01-18T02:25:08.077Z,95.55
2018-01-18T02:26:08.071Z,96.12
2018-01-18T02:27:08.070Z,96.40
2018-01-18T02:28:08.057Z,96.21
2018-01-18T02:29:08.078Z,95.55
2018-01-18T02:30:08.040Z,95.64
2018-01-18T02:31:08.032Z,95.64
2018-01-18T02:32:08.025Z,95.55
2018-01-18T02:33:08.020Z,95.64
2018-01-18T02:34:08.027Z,95.74
2018-01-18T02:35:08.005Z,95.64
2018-01-18T02:36:07.997Z,95.93
2018-01-18T02:37:07.988Z,95.36
2018-01-18T02:38:07.983Z,95.45
2018-01-18T02:39:07.972Z,95.74
2018-01-18T02:40:07.966Z,95.55
2018-01-18T02:41:07.959Z,96.21
2018-01-18T02:42:07.949Z,96.12
2018-01-18T02:43:07.943Z,96.12
2018-01-18T02:44:07.936Z,96.21
2018-01-18T02:45:07.928Z,96.40
2018-01-18T02:46:07.919Z,96.69
2018-01-18T02:47:07.913Z,96.69
2018-01-18T02:48:07.904Z,96.69
2018-01-18T02:49:07.899Z,96.12
2018-01-18T02:50:07.893Z,96.21
2018-01-18T02:51:07.882Z,96.21
2018-01-18T02:52:07.876Z,96.40
2018-01-18T02:53:07.866Z,95.74
2018-01-18T02:54:07.865Z,95.74
2018-01-18T02:55:07.859Z,95.55
2018-01-18T02:56:07.847Z,95.55
2018-01-18T02:57:07.837Z,95.74
2018-01-18T02:58:07.832Z,95.74
2018-01-18T02:59:07.824Z,95.26
2018-01-18T03:00:07.818Z,95.07
2018-01-18T03:01:07.807Z,94.98
2018-01-18T03:02:07.801Z,94.98
2018-01-18T03:03:07.794Z,94.98
2018-01-18T03:04:07.786Z,94.89
2018-01-18T03:05:07.778Z,95.07
2018-01-18T03:06:07.773Z,95.45
2018-01-18T03:07:07.763Z,95.45
2018-01-18T03:08:07.756Z,95.17
2018-01-18T03:09:07.747Z,94.98
2018-01-18T03:10:07.744Z,94.89
2018-01-18T03:11:07.730Z,94.60
2018-01-18T03:12:07.734Z,94.42
2018-01-18T03:13:07.725Z,94.60
2018-01-18T03:14:07.724Z,94.89
2018-01-18T03:15:07.704Z,95.07
2018-01-18T03:16:07.698Z,94.89
2018-01-18T03:17:07.689Z,95.17
2018-01-18T03:18:07.684Z,95.64
2018-01-18T03:19:07.677Z,94.89
2018-01-18T03:20:07.668Z,95.55
2018-01-18T03:21:07.659Z,95.17
2018-01-18T03:22:07.654Z,94.89
2018-01-18T03:23:07.646Z,94.79
2018-01-18T03:24:07.641Z,94.42
2018-01-18T03:25:07.630Z,94.79
2018-01-18T03:26:07.624Z,95.26
2018-01-18T03:27:07.618Z,95.26
2018-01-18T03:28:07.609Z,95.26
2018-01-18T03:29:07.601Z,95.74
2018-01-18T03:30:07.594Z,95.64
2018-01-18T03:31:07.587Z,95.64
2018-01-18T03:32:07.582Z,95.55
2018-01-18T03:33:07.572Z,95.74
2018-01-18T03:34:07.565Z,95.64
2018-01-18T03:35:07.556Z,95.55
2018-01-18T03:36:07.562Z,95.93
2018-01-18T03:37:07.543Z,95.64
2018-01-18T03:38:07.535Z,95.93
2018-01-18T03:39:07.534Z,95.74
2018-01-18T03:40:07.523Z,95.55
2018-01-18T03:41:07.514Z,95.64
2018-01-18T03:42:07.506Z,95.64
2018-01-18T03:43:07.502Z,95.45
2018-01-18T03:44:07.491Z,95.64
2018-01-18T03:45:07.486Z,95.55
2018-01-18T03:46:07.478Z,95.45
2018-01-18T03:47:07.472Z,96.40
2018-01-18T03:48:07.464Z,96.31
2018-01-18T03:49:07.456Z,96.31
2018-01-18T03:50:07.449Z,96.59
2018-01-18T03:51:07.441Z,96.88
2018-01-18T03:52:07.435Z,96.69
2018-01-18T03:53:07.428Z,97.34
2018-01-18T03:54:07.421Z,97.44
2018-01-18T03:55:07.413Z,97.16
2018-01-18T03:56:07.415Z,97.25
2018-01-18T03:57:07.398Z,97.25
2018-01-18T03:58:07.394Z,97.25
2018-01-18T03:59:07.384Z,97.25
2018-01-18T04:00:07.380Z,96.97
2018-01-18T04:01:07.370Z,97.25
2018-01-18T04:02:07.361Z,96.97
2018-01-18T04:03:07.357Z,97.25
2018-01-18T04:04:07.347Z,97.25
2018-01-18T04:05:07.338Z,97.06
2018-01-18T04:06:07.333Z,97.06
2018-01-18T04:07:07.325Z,97.53
2018-01-18T04:08:07.319Z,97.72
2018-01-18T04:09:07.314Z,98.01
2018-01-18T04:10:07.304Z,97.53
2018-01-18T04:11:07.295Z,97.82
2018-01-18T04:12:07.290Z,98.01
2018-01-18T04:13:07.282Z,98.01
2018-01-18T04:14:07.276Z,97.72
2018-01-18T04:15:07.268Z,98.01
2018-01-18T04:16:07.258Z,98.01
2018-01-18T04:17:07.252Z,98.29
2018-01-18T04:18:07.247Z,97.82
2018-01-18T04:19:07.238Z,98.29
2018-01-18T04:20:15.925Z,98.58
2018-01-18T04:22:01.641Z,98.77
2018-01-18T04:23:01.574Z,98.39
2018-01-18T04:24:55.998Z,98.48
2018-01-18T04:25:55.915Z,98.39
2018-01-18T04:27:50.446Z,99.43
2018-01-18T04:28:50.416Z,99.15
2018-01-18T04:30:44.827Z,99.05
2018-01-18T04:31:44.766Z,99.52
2018-01-18T04:33:39.127Z,99.24
2018-01-18T04:34:39.166Z,99.33
2018-01-18T04:36:33.477Z,99.24
2018-01-18T04:37:33.454Z,99.24
2018-01-18T04:39:27.857Z,99.99
2018-01-18T04:40:27.810Z,99.80
2018-01-18T04:42:22.235Z,99.33
2018-01-18T04:43:22.154Z,99.80
2018-01-18T04:45:16.534Z,99.62
2018-01-18T04:46:16.507Z,99.80
2018-01-18T04:48:10.929Z,99.99
2018-01-18T04:49:10.843Z,99.99
2018-01-18T04:51:05.208Z,99.99
2018-01-18T04:52:05.188Z,99.71
2018-01-18T04:53:59.585Z,99.80
2018-01-18T04:54:59.528Z,99.62
2018-01-18T04:56:53.942Z,99.24
2018-01-18T04:57:53.875Z,99.05
2018-01-18T04:59:48.276Z,99.33
2018-01-18T05:00:48.219Z,99.05
2018-01-18T05:02:42.593Z,99.05
2018-01-18T05:03:42.568Z,99.62
2018-01-18T05:05:36.922Z,99.52
2018-01-18T05:06:36.911Z,99.05
2018-01-18T05:08:31.315Z,99.62
2018-01-18T05:09:31.258Z,99.99
2018-01-18T05:11:25.718Z,99.99
2018-01-18T05:12:25.596Z,99.99
2018-01-18T05:14:19.962Z,99.99
2018-01-18T05:15:19.940Z,99.99
2018-01-18T05:17:14.356Z,99.99
2018-01-18T05:18:14.289Z,99.99
2018-01-18T05:20:08.701Z,99.99
2018-01-18T05:21:08.635Z,99.99
2018-01-18T05:23:03.045Z,99.99
2018-01-18T05:24:03.004Z,99.99
2018-01-18T05:25:58.325Z,99.99
2018-01-18T05:26:58.359Z,99.99
2018-01-18T05:28:52.688Z,99.99
2018-01-18T05:29:52.675Z,99.99
2018-01-18T05:31:47.027Z,99.99
2018-01-18T05:32:47.000Z,99.99
2018-01-18T05:34:41.402Z,99.99
2018-01-18T05:35:41.349Z,99.99
2018-01-18T05:37:35.762Z,99.99
2018-01-18T05:38:35.695Z,99.99
2018-01-18T05:40:30.119Z,99.99
2018-01-18T05:41:30.031Z,99.99
2018-01-18T05:43:24.442Z,99.99
2018-01-18T05:44:24.405Z,99.99
2018-01-18T05:46:18.746Z,99.99
2018-01-18T05:47:18.733Z,99.99
2018-01-18T05:49:13.112Z,99.99
2018-01-18T05:50:13.080Z,99.99
2018-01-18T05:52:07.432Z,99.99
2018-01-18T05:53:07.419Z,99.99
2018-01-18T05:55:01.806Z,99.99
2018-01-18T05:56:01.824Z,99.99
2018-01-18T05:58:16.492Z,99.99
2018-01-18T05:58:57.626Z,99.99
2018-01-18T05:59:57.210Z,99.99
2018-01-18T06:00:57.316Z,99.99
2018-01-18T06:01:57.134Z,99.99
2018-01-18T06:02:57.124Z,99.99
2018-01-18T06:03:57.118Z,99.99
2018-01-18T06:09:54.934Z,99.99
2018-01-18T06:10:54.559Z,99.99
2018-01-18T06:12:49.016Z,99.99
2018-01-18T06:13:49.029Z,99.99
2018-01-18T06:14:49.090Z,99.99
2018-01-18T06:15:48.920Z,99.99
2018-01-18T06:16:48.864Z,99.99
2018-01-18T06:17:48.857Z,99.99
2018-01-18T06:18:48.850Z,99.99
2018-01-18T06:19:48.842Z,99.99
2018-01-18T06:20:48.834Z,99.99
2018-01-18T06:21:48.827Z,99.99
2018-01-18T06:22:48.821Z,99.99
2018-01-18T06:23:48.811Z,99.99
2018-01-18T06:24:48.808Z,99.99
2018-01-18T06:25:48.800Z,99.99
2018-01-18T06:26:48.797Z,99.99
2018-01-18T06:27:48.784Z,99.99
2018-01-18T06:28:48.778Z,99.99
2018-01-18T06:29:48.773Z,99.99
2018-01-18T06:30:48.765Z,99.99
2018-01-18T06:31:48.781Z,99.99
2018-01-18T06:32:48.749Z,99.99
2018-01-18T06:33:48.743Z,99.99
2018-01-18T06:34:48.735Z,99.99
2018-01-18T06:35:48.727Z,99.99
2018-01-18T06:36:48.721Z,99.99
2018-01-18T06:37:48.713Z,99.99
2018-01-18T06:38:48.707Z,99.99
2018-01-18T06:39:48.736Z,99.99
2018-01-18T06:40:48.691Z,99.99
2018-01-18T06:41:48.721Z,99.99
2018-01-18T06:42:48.680Z,99.99
2018-01-18T06:43:48.670Z,99.99
2018-01-18T06:44:48.666Z,99.99
2018-01-18T06:45:48.654Z,99.99
2018-01-18T06:46:48.654Z,99.99
2018-01-18T06:47:48.641Z,99.99
2018-01-18T06:48:48.633Z,99.99
2018-01-18T06:49:48.629Z,99.99
2018-01-18T06:50:48.621Z,99.99
2018-01-18T06:51:48.613Z,99.99
2018-01-18T06:52:48.605Z,99.99
2018-01-18T06:53:48.599Z,99.99
2018-01-18T06:54:48.592Z,99.99
2018-01-18T06:55:48.582Z,99.99
2018-01-18T06:56:48.577Z,99.99
2018-01-18T06:57:48.572Z,99.99
2018-01-18T06:58:48.562Z,99.99
2018-01-18T06:59:48.553Z,99.99
2018-01-18T07:00:48.547Z,99.99
2018-01-18T07:01:48.542Z,99.99
2018-01-18T07:02:48.533Z,99.99
2018-01-18T07:03:48.727Z,99.99
2018-01-18T07:04:48.518Z,99.99
2018-01-18T07:05:48.512Z,99.99
2018-01-18T07:06:48.505Z,99.99
2018-01-18T07:07:48.495Z,99.99
2018-01-18T07:08:48.490Z,99.99
2018-01-18T07:09:48.484Z,99.99
2018-01-18T07:10:48.475Z,99.99
2018-01-18T07:11:48.467Z,99.99
2018-01-18T07:12:48.461Z,99.99
2018-01-18T07:13:48.453Z,99.99
2018-01-18T07:14:48.446Z,99.99
2018-01-18T07:15:48.439Z,99.99
2018-01-18T07:16:48.432Z,99.99
2018-01-18T07:17:48.424Z,99.99
2018-01-18T07:18:48.479Z,99.99
2018-01-18T07:19:48.415Z,99.99
2018-01-18T07:20:48.406Z,99.99
2018-01-18T07:21:48.394Z,99.99
2018-01-18T07:22:48.387Z,99.99
2018-01-18T07:23:48.380Z,99.99
2018-01-18T07:24:48.373Z,99.99
2018-01-18T07:25:48.366Z,99.99
2018-01-18T07:26:48.357Z,99.99
2018-01-18T07:27:48.350Z,99.99
2018-01-18T07:28:48.345Z,99.99
2018-01-18T07:29:48.337Z,99.99
2018-01-18T07:30:48.328Z,99.99
2018-01-18T07:31:48.324Z,99.99
2018-01-18T07:32:48.316Z,99.99
2018-01-18T07:33:48.308Z,99.99
2018-01-18T07:34:48.300Z,99.99
2018-01-18T07:35:48.295Z,99.99
2018-01-18T07:36:48.286Z,99.99
2018-01-18T07:37:48.280Z,99.99
2018-01-18T07:38:48.272Z,99.99
2018-01-18T07:39:48.264Z,99.80
2018-01-18T07:40:48.256Z,99.99
2018-01-18T07:41:48.248Z,99.99
2018-01-18T07:42:48.244Z,99.99
2018-01-18T07:43:48.233Z,99.99
2018-01-18T07:44:48.226Z,99.99
2018-01-18T07:45:48.221Z,99.99
2018-01-18T07:46:48.235Z,99.99
2018-01-18T07:47:48.211Z,99.99
2018-01-18T07:48:48.198Z,99.99
2018-01-18T07:49:48.192Z,99.99
2018-01-18T07:50:48.184Z,99.99
2018-01-18T07:51:48.181Z,99.99
2018-01-18T07:52:48.169Z,99.99
2018-01-18T07:53:48.165Z,99.99
2018-01-18T07:54:48.155Z,99.99
2018-01-18T07:55:48.147Z,99.99
2018-01-18T07:56:48.142Z,99.99
2018-01-18T07:57:48.134Z,99.99
2018-01-18T07:58:48.127Z,99.99
2018-01-18T07:59:48.133Z,99.99
2018-01-18T08:00:48.115Z,99.99
2018-01-18T08:01:48.112Z,99.99
2018-01-18T08:02:48.100Z,99.99
2018-01-18T08:03:48.093Z,99.99
2018-01-18T08:04:48.090Z,99.99
2018-01-18T08:05:48.081Z,99.99
2018-01-18T08:06:48.072Z,99.99
2018-01-18T08:07:48.064Z,99.99
2018-01-18T08:08:48.058Z,99.99
2018-01-18T08:09:48.050Z,99.99
2018-01-18T08:10:48.043Z,99.99
2018-01-18T08:11:48.043Z,99.99
2018-01-18T08:12:48.032Z,99.99
2018-01-18T08:13:48.021Z,99.99
2018-01-18T08:14:48.014Z,99.99
2018-01-18T08:15:48.005Z,99.99
2018-01-18T08:16:48.001Z,99.99
2018-01-18T08:17:47.997Z,99.99
2018-01-18T08:18:47.986Z,99.99
2018-01-18T08:19:47.979Z,99.99
2018-01-18T08:20:47.970Z,99.99
2018-01-18T08:21:47.966Z,99.66
2018-01-18T08:22:47.959Z,99.95
2018-01-18T08:23:47.951Z,99.99
2018-01-18T08:24:47.942Z,99.99
2018-01-18T08:25:47.934Z,99.99
2018-01-18T08:26:47.928Z,99.99
2018-01-18T08:27:47.926Z,99.99
2018-01-18T08:28:47.918Z,99.99
2018-01-18T08:29:47.907Z,99.99
2018-01-18T08:30:47.902Z,99.99
2018-01-18T08:31:47.895Z,99.99
2018-01-18T08:32:47.887Z,99.99
2018-01-18T08:33:47.878Z,99.99
2018-01-18T08:34:47.872Z,99.99
2018-01-18T08:35:47.865Z,99.99
2018-01-18T08:36:47.862Z,99.99
2018-01-18T08:37:47.852Z,99.99
2018-01-18T08:38:47.847Z,99.99
2018-01-18T08:39:47.837Z,99.99
2018-01-18T08:40:47.830Z,99.99
2018-01-18T08:41:47.824Z,99.76
2018-01-18T08:42:47.818Z,99.66
2018-01-18T08:43:47.815Z,99.99
2018-01-18T08:44:47.804Z,99.99
2018-01-18T08:45:47.794Z,99.99
2018-01-18T08:46:47.794Z,99.99
2018-01-18T08:47:47.787Z,99.85
2018-01-18T08:48:47.774Z,99.99
2018-01-18T08:49:47.769Z,99.99
2018-01-18T08:50:47.765Z,99.99
2018-01-18T08:51:47.755Z,99.99
2018-01-18T08:52:47.748Z,99.99
2018-01-18T08:53:47.749Z,99.99
2018-01-18T08:54:47.733Z,99.99
2018-01-18T08:55:47.725Z,99.99
2018-01-18T08:56:47.724Z,99.99
2018-01-18T08:57:47.713Z,99.99
2018-01-18T08:58:47.711Z,99.99
2018-01-18T08:59:47.698Z,99.99
2018-01-18T09:00:47.699Z,99.99
2018-01-18T09:01:47.686Z,99.99
2018-01-18T09:02:47.682Z,99.99
2018-01-18T09:03:47.679Z,99.99
2018-01-18T09:04:47.681Z,99.99
2018-01-18T09:05:47.658Z,99.99
2018-01-18T09:06:47.655Z,99.99
2018-01-18T09:07:47.645Z,99.99
2018-01-18T09:08:47.643Z,99.99
2018-01-18T09:09:47.637Z,99.99
2018-01-18T09:10:47.626Z,99.99
2018-01-18T09:11:47.627Z,99.99
2018-01-18T09:12:47.622Z,99.85
2018-01-18T09:13:47.617Z,99.66
2018-01-18T09:14:47.600Z,99.57
2018-01-18T09:15:47.593Z,99.66
2018-01-18T09:16:47.585Z,99.10
2018-01-18T09:17:47.581Z,99.66
2018-01-18T09:18:47.571Z,99.85
2018-01-18T09:19:47.564Z,99.99
2018-01-18T09:20:47.563Z,99.99
2018-01-18T09:21:47.554Z,99.99
2018-01-18T09:22:47.556Z,99.99
2018-01-18T09:23:47.540Z,99.99
2018-01-18T09:24:47.534Z,99.99
2018-01-18T09:25:47.542Z,99.99
2018-01-18T09:26:47.521Z,99.99
2018-01-18T09:27:47.608Z,99.99
2018-01-18T09:28:47.503Z,99.99
2018-01-18T09:29:47.499Z,99.99
2018-01-18T09:30:47.494Z,99.99
2018-01-18T09:31:47.491Z,99.99
2018-01-18T09:32:47.478Z,99.99
2018-01-18T09:33:47.488Z,99.99
2018-01-18T09:34:47.467Z,99.99
2018-01-18T09:35:47.458Z,99.99
2018-01-18T09:36:47.455Z,99.99
2018-01-18T09:37:47.448Z,99.99
2018-01-18T09:38:47.437Z,99.99
2018-01-18T09:39:47.431Z,99.99
2018-01-18T09:40:47.453Z,99.99
2018-01-18T09:41:47.417Z,99.99
2018-01-18T09:42:47.412Z,99.99
2018-01-18T09:43:47.411Z,99.99
2018-01-18T09:44:47.403Z,99.99
2018-01-18T09:45:47.393Z,99.99
2018-01-18T09:46:47.388Z,99.99
2018-01-18T09:47:47.418Z,99.99
2018-01-18T09:48:47.374Z,99.99
2018-01-18T09:49:47.368Z,99.99
2018-01-18T09:50:47.372Z,99.99
2018-01-18T09:51:47.354Z,99.99
2018-01-18T09:52:47.347Z,99.99
2018-01-18T09:53:47.340Z,99.99
2018-01-18T09:54:47.337Z,99.99
2018-01-18T09:55:47.410Z,99.99
2018-01-18T09:56:47.330Z,99.99
2018-01-18T09:57:47.317Z,99.99
2018-01-18T09:58:47.308Z,99.99
2018-01-18T09:59:47.308Z,99.99
2018-01-18T10:00:47.296Z,99.99
2018-01-18T10:01:47.327Z,99.99
2018-01-18T10:02:47.283Z,99.99
2018-01-18T10:03:47.282Z,99.99
2018-01-18T10:04:47.274Z,99.99
2018-01-18T10:05:47.265Z,99.99
2018-01-18T10:06:47.258Z,99.99
2018-01-18T10:07:47.250Z,99.99
2018-01-18T10:08:47.246Z,99.99
2018-01-18T10:09:47.256Z,99.99
2018-01-18T10:10:47.234Z,99.99
2018-01-18T10:11:47.225Z,99.99
2018-01-18T10:12:47.693Z,99.99
2018-01-18T10:13:47.214Z,99.99
2018-01-18T10:14:47.208Z,99.99
2018-01-18T10:15:47.222Z,99.99
2018-01-18T10:18:25.361Z,99.99
2018-01-18T10:19:25.840Z,99.99
2018-01-18T10:20:25.204Z,99.99
2018-01-18T10:21:23.872Z,99.99
2018-01-18T10:22:23.844Z,99.99
2018-01-18T10:23:23.761Z,99.99
2018-01-18T10:24:23.756Z,99.99
2018-01-18T10:25:23.753Z,99.99
2018-01-18T10:26:23.745Z,99.99
2018-01-18T10:27:23.734Z,99.99
2018-01-18T10:28:23.731Z,99.99
2018-01-18T10:29:23.722Z,99.99
2018-01-18T10:30:23.725Z,99.99
2018-01-18T10:31:23.712Z,99.99
2018-01-18T10:32:23.703Z,99.99
2018-01-18T10:33:23.736Z,99.99
2018-01-18T10:34:23.697Z,99.99
2018-01-18T10:35:23.688Z,99.99
2018-01-18T10:36:23.685Z,99.99
2018-01-18T10:37:23.699Z,99.99
2018-01-18T10:38:23.689Z,99.99
2018-01-18T10:39:23.687Z,99.99
2018-01-18T10:40:23.658Z,99.99
2018-01-18T10:41:23.830Z,99.99
2018-01-18T10:42:23.721Z,99.99
2018-01-18T10:43:34.356Z,99.99
2018-01-18T10:44:23.642Z,99.99
2018-01-18T10:45:23.626Z,99.99
2018-01-18T10:46:23.621Z,99.99
2018-01-18T10:47:23.614Z,99.99
2018-01-18T10:48:23.604Z,99.99
2018-01-18T10:49:23.861Z,99.99
2018-01-18T10:50:26.389Z,99.99
2018-01-18T10:51:23.590Z,99.99
2018-01-18T10:52:23.672Z,99.99
2018-01-18T10:53:23.579Z,99.99
2018-01-18T10:54:25.421Z,99.99
2018-01-18T10:55:24.745Z,99.99
2018-01-18T10:56:23.663Z,99.99
2018-01-18T10:57:23.752Z,99.99
2018-01-18T10:58:25.413Z,99.99
2018-01-18T10:59:26.388Z,99.99
2018-01-18T11:03:44.058Z,99.99
2018-01-18T11:04:35.766Z,99.99
2018-01-18T11:05:35.690Z,99.99
2018-01-18T11:06:37.391Z,99.99
2018-01-18T11:07:35.664Z,99.99
2018-01-18T11:08:35.641Z,99.99
2018-01-18T11:09:35.634Z,99.99
2018-01-18T11:10:35.633Z,99.99
2018-01-18T11:11:35.625Z,99.99
2018-01-18T11:12:35.629Z,99.99
2018-01-18T11:13:35.609Z,99.99
2018-01-18T11:14:35.610Z,99.99
2018-01-18T11:15:35.604Z,99.99
2018-01-18T11:16:35.658Z,99.99
2018-01-18T11:17:35.598Z,99.99
2018-01-18T11:18:35.589Z,99.99
2018-01-18T11:19:35.577Z,99.99
2018-01-18T11:20:35.570Z,99.99
2018-01-18T11:21:35.565Z,99.99
2018-01-18T11:22:35.559Z,99.99
2018-01-18T11:23:35.556Z,99.99
2018-01-18T11:24:35.562Z,99.99
2018-01-18T11:25:35.545Z,99.44
2018-01-18T11:26:35.537Z,99.25
2018-01-18T11:27:35.548Z,99.44
2018-01-18T11:28:35.527Z,99.34
2018-01-18T11:29:35.522Z,99.15
2018-01-18T11:30:35.515Z,99.06
2018-01-18T11:31:35.521Z,99.15
2018-01-18T11:32:35.520Z,99.34
2018-01-18T11:33:35.498Z,99.63
2018-01-18T11:34:35.495Z,99.15
2018-01-18T11:35:35.503Z,98.54
2018-01-18T11:36:35.483Z,98.58
2018-01-18T11:37:35.479Z,98.58
2018-01-18T11:38:35.474Z,99.06
2018-01-18T11:39:35.467Z,99.25
2018-01-18T11:40:35.462Z,99.34
2018-01-18T11:41:35.478Z,99.63
2018-01-18T11:42:35.453Z,99.99
2018-01-18T11:43:35.447Z,99.99
2018-01-18T11:44:35.442Z,99.63
2018-01-18T11:45:35.470Z,99.34
2018-01-18T11:46:35.431Z,99.63
2018-01-18T11:47:35.429Z,99.44
2018-01-18T11:48:35.440Z,98.58
2018-01-18T11:49:35.415Z,98.49
2018-01-18T11:50:35.433Z,98.30
2018-01-18T11:51:35.441Z,98.87
2018-01-18T11:52:35.403Z,99.15
2018-01-18T11:53:35.409Z,98.68
2018-01-18T11:54:35.391Z,98.30
2018-01-18T11:55:35.391Z,98.49
2018-01-18T11:56:35.381Z,97.97
2018-01-18T11:57:35.377Z,98.07
2018-01-18T11:58:35.369Z,97.31
2018-01-18T11:59:35.369Z,97.02
2018-01-18T12:00:35.379Z,96.83
2018-01-18T12:01:35.355Z,96.73
2018-01-18T12:02:35.352Z,96.83
2018-01-18T12:03:35.347Z,96.45
2018-01-18T12:04:35.351Z,97.59
2018-01-18T12:05:35.357Z,97.50
2018-01-18T12:06:35.343Z,96.83
2018-01-18T12:07:35.327Z,95.50
2018-01-18T12:08:35.322Z,95.60
2018-01-18T12:09:35.313Z,95.98
2018-01-18T12:10:35.365Z,95.98
2018-01-18T12:11:35.308Z,95.41
2018-01-18T12:12:35.353Z,95.31
2018-01-18T12:13:35.301Z,95.31
2018-01-18T12:14:35.297Z,95.12
2018-01-18T12:15:35.292Z,95.31
2018-01-18T12:16:35.284Z,94.42
2018-01-18T12:17:35.279Z,93.94
2018-01-18T12:18:35.273Z,93.56
2018-01-18T12:19:35.270Z,92.71
2018-01-18T12:20:35.263Z,92.71
2018-01-18T12:21:37.248Z,93.37
2018-01-18T12:26:56.832Z,91.66
2018-01-18T12:29:12.162Z,92.14
2018-01-18T12:30:12.148Z,92.04
2018-01-18T12:32:58.632Z,90.81
2018-01-18T12:33:49.671Z,91.09
2018-01-18T12:35:43.709Z,90.33
2018-01-18T12:36:43.550Z,88.91
2018-01-18T12:38:37.994Z,88.15
2018-01-18T12:39:37.900Z,88.06
2018-01-18T12:41:32.371Z,86.44
2018-01-18T12:42:32.250Z,86.25
2018-01-18T12:44:26.642Z,86.72
2018-01-18T12:45:26.630Z,87.11
2018-01-18T12:46:26.598Z,85.78
2018-01-18T12:47:26.652Z,85.97
2018-01-18T12:48:26.587Z,85.49
2018-01-18T12:49:26.599Z,85.68
2018-01-18T12:50:26.581Z,85.78
2018-01-18T12:51:26.570Z,86.35
2018-01-18T12:52:26.592Z,85.87
2018-01-18T12:53:26.567Z,83.88
2018-01-18T12:54:26.562Z,82.46
2018-01-18T12:55:26.555Z,82.27
2018-01-18T12:56:26.549Z,82.65
2018-01-18T12:57:26.639Z,82.65
2018-01-18T12:58:26.549Z,82.27
2018-01-18T12:59:26.538Z,82.74
2018-01-18T13:00:26.537Z,82.55
2018-01-18T13:01:26.531Z,82.27
2018-01-18T13:02:26.528Z,81.04
2018-01-18T13:03:26.532Z,80.56
2018-01-18T13:04:26.515Z,80.75
2018-01-18T13:05:26.513Z,80.37
2018-01-18T13:06:26.511Z,80.37
2018-01-18T13:07:26.539Z,81.23
2018-01-18T13:08:26.534Z,81.41
2018-01-18T13:09:26.689Z,82.74
2018-01-18T13:10:26.498Z,81.60
2018-01-18T13:11:26.488Z,81.32
2018-01-18T13:12:26.487Z,81.13
2018-01-18T13:13:26.480Z,81.70
2018-01-18T13:14:26.476Z,79.61
2018-01-18T13:15:26.475Z,79.52
2018-01-18T13:16:26.466Z,79.04
2018-01-18T13:17:26.488Z,79.04
2018-01-18T13:18:26.513Z,79.52
2018-01-18T13:19:27.175Z,79.52
2018-01-18T13:20:27.236Z,78.95
2018-01-18T13:21:26.449Z,77.71
2018-01-18T13:22:26.485Z,77.62
2018-01-18T13:23:27.176Z,78.19
2018-01-18T13:24:26.442Z,79.14
2018-01-18T13:25:26.462Z,79.04
2018-01-18T13:26:26.620Z,78.19
2018-01-18T13:27:26.515Z,77.43
2018-01-18T13:28:26.630Z,77.24
2018-01-18T13:29:26.672Z,76.01
2018-01-18T13:30:26.542Z,76.23
2018-01-18T13:31:26.575Z,75.57
2018-01-18T13:32:26.635Z,75.85
2018-01-18T13:33:27.447Z,76.20
2018-01-18T13:34:26.527Z,76.10
2018-01-18T13:35:26.493Z,76.20
2018-01-18T13:36:26.425Z,75.72
2018-01-18T13:37:26.699Z,75.53
2018-01-18T13:38:26.389Z,75.62
2018-01-18T13:39:26.442Z,76.01
2018-01-18T13:40:26.564Z,75.53
2018-01-18T13:41:26.368Z,76.01
2018-01-18T13:42:26.401Z,75.05
2018-01-18T13:43:26.446Z,75.53
2018-01-18T13:44:26.355Z,75.62